sensor_id;sensor_type;location;lat;lon;timestamp;P1;durP1;ratioP1;P2;durP2;ratioP2
12908;SDS011;6522;49.622;6.126;2023-08-30T00:00:39;11.55;;;10.35;;
12908;SDS011;6522;49.622;6.126;2023-08-30T00:03:26;11.38;;;10.18;;
12908;SDS011;6522;49.622;6.126;2023-08-30T00:06:12;10.02;;;9.13;;
12908;SDS011;6522;49.622;6.126;2023-08-30T00:08:59;10.73;;;9.48;;
12908;SDS011;6522;49.622;6.126;2023-08-30T00:11:46;12.37;;;10.68;;
12908;SDS011;6522;49.622;6.126;2023-08-30T00:14:33;13.77;;;10.98;;
12908;SDS011;6522;49.622;6.126;2023-08-30T00:17:19;11.85;;;10.65;;
12908;SDS011;6522;49.622;6.126;2023-08-30T00:20:06;12.00;;;10.80;;
12908;SDS011;6522;49.622;6.126;2023-08-30T00:22:53;10.77;;;9.50;;
12908;SDS011;6522;49.622;6.126;2023-08-30T00:25:40;10.93;;;9.35;;
12908;SDS011;6522;49.622;6.126;2023-08-30T00:28:26;12.40;;;10.60;;
12908;SDS011;6522;49.622;6.126;2023-08-30T00:31:13;10.23;;;9.23;;
12908;SDS011;6522;49.622;6.126;2023-08-30T00:34:00;11.65;;;10.48;;
12908;SDS011;6522;49.622;6.126;2023-08-30T00:36:47;11.30;;;10.10;;
12908;SDS011;6522;49.622;6.126;2023-08-30T00:39:33;15.63;;;10.02;;
12908;SDS011;6522;49.622;6.126;2023-08-30T00:42:20;13.52;;;10.57;;
12908;SDS011;6522;49.622;6.126;2023-08-30T00:45:06;11.50;;;10.30;;
12908;SDS011;6522;49.622;6.126;2023-08-30T00:47:53;11.70;;;9.73;;
12908;SDS011;6522;49.622;6.126;2023-08-30T00:50:40;13.25;;;10.25;;
12908;SDS011;6522;49.622;6.126;2023-08-30T00:53:26;10.77;;;9.68;;
12908;SDS011;6522;49.622;6.126;2023-08-30T00:56:14;12.82;;;11.52;;
12908;SDS011;6522;49.622;6.126;2023-08-30T00:59:00;13.82;;;12.32;;
12908;SDS011;6522;49.622;6.126;2023-08-30T01:01:47;16.30;;;12.70;;
12908;SDS011;6522;49.622;6.126;2023-08-30T01:04:33;16.12;;;12.98;;
12908;SDS011;6522;49.622;6.126;2023-08-30T01:07:20;14.27;;;12.07;;
12908;SDS011;6522;49.622;6.126;2023-08-30T01:10:07;13.15;;;11.85;;
12908;SDS011;6522;49.622;6.126;2023-08-30T01:12:56;13.25;;;10.82;;
12908;SDS011;6522;49.622;6.126;2023-08-30T01:15:40;12.35;;;11.18;;
12908;SDS011;6522;49.622;6.126;2023-08-30T01:18:29;15.73;;;12.77;;
12908;SDS011;6522;49.622;6.126;2023-08-30T01:21:18;14.20;;;12.25;;
12908;SDS011;6522;49.622;6.126;2023-08-30T01:24:01;14.07;;;11.85;;
12908;SDS011;6522;49.622;6.126;2023-08-30T01:27:34;12.77;;;11.05;;
12908;SDS011;6522;49.622;6.126;2023-08-30T01:29:34;14.02;;;11.43;;
12908;SDS011;6522;49.622;6.126;2023-08-30T01:32:21;12.82;;;11.52;;
12908;SDS011;6522;49.622;6.126;2023-08-30T01:35:08;11.45;;;10.05;;
12908;SDS011;6522;49.622;6.126;2023-08-30T01:37:55;13.05;;;10.80;;
12908;SDS011;6522;49.622;6.126;2023-08-30T01:40:42;14.70;;;11.55;;
12908;SDS011;6522;49.622;6.126;2023-08-30T01:43:28;14.87;;;12.55;;
12908;SDS011;6522;49.622;6.126;2023-08-30T01:46:15;14.43;;;12.55;;
12908;SDS011;6522;49.622;6.126;2023-08-30T01:49:02;12.82;;;11.50;;
12908;SDS011;6522;49.622;6.126;2023-08-30T01:51:49;11.88;;;10.35;;
12908;SDS011;6522;49.622;6.126;2023-08-30T01:54:35;13.90;;;10.88;;
12908;SDS011;6522;49.622;6.126;2023-08-30T01:57:22;13.68;;;12.25;;
12908;SDS011;6522;49.622;6.126;2023-08-30T02:00:08;15.80;;;12.35;;
12908;SDS011;6522;49.622;6.126;2023-08-30T02:02:55;18.45;;;13.73;;
12908;SDS011;6522;49.622;6.126;2023-08-30T02:06:03;17.08;;;13.30;;
12908;SDS011;6522;49.622;6.126;2023-08-30T02:08:49;15.13;;;12.80;;
12908;SDS011;6522;49.622;6.126;2023-08-30T02:11:34;13.52;;;11.90;;
12908;SDS011;6522;49.622;6.126;2023-08-30T02:14:20;11.20;;;10.05;;
12908;SDS011;6522;49.622;6.126;2023-08-30T02:17:08;13.10;;;10.38;;
12908;SDS011;6522;49.622;6.126;2023-08-30T02:19:54;13.40;;;11.93;;
12908;SDS011;6522;49.622;6.126;2023-08-30T02:22:41;15.25;;;12.50;;
12908;SDS011;6522;49.622;6.126;2023-08-30T02:25:28;13.90;;;11.57;;
12908;SDS011;6522;49.622;6.126;2023-08-30T02:28:14;14.02;;;11.80;;
12908;SDS011;6522;49.622;6.126;2023-08-30T02:31:01;13.57;;;10.57;;
12908;SDS011;6522;49.622;6.126;2023-08-30T02:33:48;14.57;;;11.50;;
12908;SDS011;6522;49.622;6.126;2023-08-30T02:36:34;11.23;;;10.05;;
12908;SDS011;6522;49.622;6.126;2023-08-30T02:39:21;9.60;;;8.68;;
12908;SDS011;6522;49.622;6.126;2023-08-30T02:42:08;11.12;;;9.98;;
12908;SDS011;6522;49.622;6.126;2023-08-30T02:44:54;13.10;;;10.23;;
12908;SDS011;6522;49.622;6.126;2023-08-30T02:47:41;12.13;;;10.82;;
12908;SDS011;6522;49.622;6.126;2023-08-30T02:50:27;13.30;;;11.38;;
12908;SDS011;6522;49.622;6.126;2023-08-30T02:53:14;14.45;;;11.95;;
12908;SDS011;6522;49.622;6.126;2023-08-30T02:56:01;15.45;;;12.68;;
12908;SDS011;6522;49.622;6.126;2023-08-30T02:58:48;17.90;;;12.07;;
12908;SDS011;6522;49.622;6.126;2023-08-30T03:01:34;15.35;;;12.68;;
12908;SDS011;6522;49.622;6.126;2023-08-30T03:04:21;12.20;;;10.90;;
12908;SDS011;6522;49.622;6.126;2023-08-30T03:07:08;13.52;;;11.38;;
12908;SDS011;6522;49.622;6.126;2023-08-30T03:09:55;13.80;;;12.40;;
12908;SDS011;6522;49.622;6.126;2023-08-30T03:12:42;14.23;;;11.18;;
12908;SDS011;6522;49.622;6.126;2023-08-30T03:15:30;12.93;;;9.13;;
12908;SDS011;6522;49.622;6.126;2023-08-30T03:18:16;12.00;;;8.93;;
12908;SDS011;6522;49.622;6.126;2023-08-30T03:21:02;12.57;;;10.57;;
12908;SDS011;6522;49.622;6.126;2023-08-30T03:23:49;12.07;;;10.77;;
12908;SDS011;6522;49.622;6.126;2023-08-30T03:26:35;12.20;;;10.30;;
12908;SDS011;6522;49.622;6.126;2023-08-30T03:29:22;12.68;;;11.12;;
12908;SDS011;6522;49.622;6.126;2023-08-30T03:32:09;13.30;;;11.27;;
12908;SDS011;6522;49.622;6.126;2023-08-30T03:34:55;13.32;;;11.07;;
12908;SDS011;6522;49.622;6.126;2023-08-30T03:37:42;14.27;;;11.90;;
12908;SDS011;6522;49.622;6.126;2023-08-30T03:40:29;13.73;;;11.48;;
12908;SDS011;6522;49.622;6.126;2023-08-30T03:43:15;12.98;;;10.68;;
12908;SDS011;6522;49.622;6.126;2023-08-30T03:46:02;12.23;;;10.18;;
12908;SDS011;6522;49.622;6.126;2023-08-30T03:48:52;12.23;;;10.68;;
12908;SDS011;6522;49.622;6.126;2023-08-30T03:51:38;12.25;;;10.98;;
12908;SDS011;6522;49.622;6.126;2023-08-30T03:54:25;17.77;;;10.95;;
12908;SDS011;6522;49.622;6.126;2023-08-30T03:57:12;15.45;;;11.93;;
12908;SDS011;6522;49.622;6.126;2023-08-30T03:59:58;15.57;;;11.60;;
12908;SDS011;6522;49.622;6.126;2023-08-30T04:02:45;11.85;;;10.68;;
12908;SDS011;6522;49.622;6.126;2023-08-30T04:05:36;14.40;;;11.10;;
12908;SDS011;6522;49.622;6.126;2023-08-30T04:08:22;13.93;;;11.68;;
12908;SDS011;6522;49.622;6.126;2023-08-30T04:11:09;15.85;;;13.65;;
12908;SDS011;6522;49.622;6.126;2023-08-30T04:13:56;14.05;;;12.50;;
12908;SDS011;6522;49.622;6.126;2023-08-30T04:16:43;17.77;;;13.20;;
12908;SDS011;6522;49.622;6.126;2023-08-30T04:19:29;16.83;;;13.60;;
12908;SDS011;6522;49.622;6.126;2023-08-30T04:22:17;14.60;;;13.05;;
12908;SDS011;6522;49.622;6.126;2023-08-30T04:25:04;20.12;;;13.90;;
12908;SDS011;6522;49.622;6.126;2023-08-30T04:27:51;18.77;;;13.55;;
12908;SDS011;6522;49.622;6.126;2023-08-30T04:30:38;14.87;;;13.32;;
12908;SDS011;6522;49.622;6.126;2023-08-30T04:33:26;14.43;;;12.30;;
12908;SDS011;6522;49.622;6.126;2023-08-30T04:36:11;14.77;;;12.93;;
12908;SDS011;6522;49.622;6.126;2023-08-30T04:38:58;14.63;;;11.85;;
12908;SDS011;6522;49.622;6.126;2023-08-30T04:41:45;13.70;;;11.00;;
12908;SDS011;6522;49.622;6.126;2023-08-30T04:44:32;15.25;;;11.65;;
12908;SDS011;6522;49.622;6.126;2023-08-30T04:47:19;14.25;;;11.43;;
12908;SDS011;6522;49.622;6.126;2023-08-30T04:50:06;13.35;;;10.65;;
12908;SDS011;6522;49.622;6.126;2023-08-30T04:52:53;14.00;;;11.32;;
12908;SDS011;6522;49.622;6.126;2023-08-30T04:55:40;13.10;;;10.85;;
12908;SDS011;6522;49.622;6.126;2023-08-30T04:58:26;16.87;;;10.48;;
12908;SDS011;6522;49.622;6.126;2023-08-30T05:01:13;12.90;;;9.77;;
12908;SDS011;6522;49.622;6.126;2023-08-30T05:04:00;13.95;;;12.05;;
12908;SDS011;6522;49.622;6.126;2023-08-30T05:06:47;13.20;;;10.90;;
12908;SDS011;6522;49.622;6.126;2023-08-30T05:09:35;14.35;;;11.45;;
12908;SDS011;6522;49.622;6.126;2023-08-30T05:12:21;19.85;;;12.13;;
12908;SDS011;6522;49.622;6.126;2023-08-30T05:15:08;15.35;;;11.70;;
12908;SDS011;6522;49.622;6.126;2023-08-30T05:17:55;12.37;;;10.40;;
12908;SDS011;6522;49.622;6.126;2023-08-30T05:20:42;14.23;;;12.82;;
12908;SDS011;6522;49.622;6.126;2023-08-30T05:23:28;12.70;;;11.38;;
12908;SDS011;6522;49.622;6.126;2023-08-30T05:26:15;14.75;;;11.57;;
12908;SDS011;6522;49.622;6.126;2023-08-30T05:29:02;15.63;;;13.00;;
12908;SDS011;6522;49.622;6.126;2023-08-30T05:31:49;14.10;;;11.52;;
12908;SDS011;6522;49.622;6.126;2023-08-30T05:34:36;12.25;;;10.55;;
12908;SDS011;6522;49.622;6.126;2023-08-30T05:37:22;10.73;;;9.57;;
12908;SDS011;6522;49.622;6.126;2023-08-30T05:40:09;14.55;;;10.48;;
12908;SDS011;6522;49.622;6.126;2023-08-30T05:42:56;12.00;;;10.80;;
12908;SDS011;6522;49.622;6.126;2023-08-30T05:45:43;10.93;;;9.45;;
12908;SDS011;6522;49.622;6.126;2023-08-30T05:48:30;17.37;;;11.65;;
12908;SDS011;6522;49.622;6.126;2023-08-30T05:51:17;14.93;;;12.00;;
12908;SDS011;6522;49.622;6.126;2023-08-30T05:54:04;15.95;;;11.95;;
12908;SDS011;6522;49.622;6.126;2023-08-30T05:56:51;14.60;;;11.95;;
12908;SDS011;6522;49.622;6.126;2023-08-30T05:59:37;26.48;;;12.55;;
12908;SDS011;6522;49.622;6.126;2023-08-30T06:02:24;15.30;;;12.27;;
12908;SDS011;6522;49.622;6.126;2023-08-30T06:05:11;14.70;;;13.18;;
12908;SDS011;6522;49.622;6.126;2023-08-30T06:07:57;15.23;;;12.50;;
12908;SDS011;6522;49.622;6.126;2023-08-30T06:10:44;15.77;;;10.88;;
12908;SDS011;6522;49.622;6.126;2023-08-30T06:13:31;14.82;;;11.77;;
12908;SDS011;6522;49.622;6.126;2023-08-30T06:16:17;14.65;;;13.05;;
12908;SDS011;6522;49.622;6.126;2023-08-30T06:19:04;15.88;;;14.27;;
12908;SDS011;6522;49.622;6.126;2023-08-30T06:21:51;14.80;;;12.13;;
12908;SDS011;6522;49.622;6.126;2023-08-30T06:24:38;13.98;;;11.75;;
12908;SDS011;6522;49.622;6.126;2023-08-30T06:27:25;13.62;;;11.93;;
12908;SDS011;6522;49.622;6.126;2023-08-30T06:30:11;15.57;;;13.85;;
12908;SDS011;6522;49.622;6.126;2023-08-30T06:32:58;18.73;;;14.25;;
12908;SDS011;6522;49.622;6.126;2023-08-30T06:35:47;21.75;;;16.40;;
12908;SDS011;6522;49.622;6.126;2023-08-30T06:38:32;26.90;;;17.15;;
12908;SDS011;6522;49.622;6.126;2023-08-30T06:41:19;21.50;;;14.98;;
12908;SDS011;6522;49.622;6.126;2023-08-30T06:44:05;19.20;;;15.15;;
12908;SDS011;6522;49.622;6.126;2023-08-30T06:46:52;18.37;;;16.00;;
12908;SDS011;6522;49.622;6.126;2023-08-30T06:49:40;19.30;;;15.38;;
12908;SDS011;6522;49.622;6.126;2023-08-30T06:52:26;17.42;;;15.20;;
12908;SDS011;6522;49.622;6.126;2023-08-30T06:55:13;23.05;;;13.90;;
12908;SDS011;6522;49.622;6.126;2023-08-30T06:58:01;16.33;;;14.63;;
12908;SDS011;6522;49.622;6.126;2023-08-30T07:00:47;18.42;;;16.33;;
12908;SDS011;6522;49.622;6.126;2023-08-30T07:03:34;14.50;;;13.00;;
12908;SDS011;6522;49.622;6.126;2023-08-30T07:06:20;21.45;;;15.27;;
12908;SDS011;6522;49.622;6.126;2023-08-30T07:09:07;17.48;;;15.07;;
12908;SDS011;6522;49.622;6.126;2023-08-30T07:11:54;17.17;;;15.07;;
12908;SDS011;6522;49.622;6.126;2023-08-30T07:14:41;17.10;;;14.45;;
12908;SDS011;6522;49.622;6.126;2023-08-30T07:17:27;17.87;;;14.02;;
12908;SDS011;6522;49.622;6.126;2023-08-30T07:20:14;23.75;;;15.10;;
12908;SDS011;6522;49.622;6.126;2023-08-30T07:23:01;21.15;;;14.40;;
12908;SDS011;6522;49.622;6.126;2023-08-30T07:25:48;16.60;;;13.25;;
12908;SDS011;6522;49.622;6.126;2023-08-30T07:28:34;16.08;;;14.05;;
12908;SDS011;6522;49.622;6.126;2023-08-30T07:31:21;16.20;;;13.75;;
12908;SDS011;6522;49.622;6.126;2023-08-30T07:34:08;13.02;;;11.68;;
12908;SDS011;6522;49.622;6.126;2023-08-30T07:36:55;17.77;;;12.50;;
12908;SDS011;6522;49.622;6.126;2023-08-30T07:39:42;13.35;;;11.95;;
12908;SDS011;6522;49.622;6.126;2023-08-30T07:42:29;13.05;;;11.50;;
12908;SDS011;6522;49.622;6.126;2023-08-30T07:45:16;14.87;;;12.85;;
12908;SDS011;6522;49.622;6.126;2023-08-30T07:48:02;12.85;;;11.12;;
12908;SDS011;6522;49.622;6.126;2023-08-30T07:50:50;13.50;;;12.10;;
12908;SDS011;6522;49.622;6.126;2023-08-30T07:53:36;15.03;;;12.10;;
12908;SDS011;6522;49.622;6.126;2023-08-30T07:56:23;13.55;;;12.35;;
12908;SDS011;6522;49.622;6.126;2023-08-30T07:59:10;14.52;;;13.13;;
12908;SDS011;6522;49.622;6.126;2023-08-30T08:01:57;14.87;;;13.32;;
12908;SDS011;6522;49.622;6.126;2023-08-30T08:04:44;13.77;;;12.40;;
12908;SDS011;6522;49.622;6.126;2023-08-30T08:07:30;14.10;;;12.80;;
12908;SDS011;6522;49.622;6.126;2023-08-30T08:10:17;13.05;;;11.90;;
12908;SDS011;6522;49.622;6.126;2023-08-30T08:13:04;14.20;;;12.90;;
12908;SDS011;6522;49.622;6.126;2023-08-30T08:15:51;15.00;;;13.70;;
12908;SDS011;6522;49.622;6.126;2023-08-30T08:18:38;13.57;;;12.27;;
12908;SDS011;6522;49.622;6.126;2023-08-30T08:21:24;13.57;;;12.10;;
12908;SDS011;6522;49.622;6.126;2023-08-30T08:24:11;14.82;;;13.52;;
12908;SDS011;6522;49.622;6.126;2023-08-30T08:26:57;14.75;;;13.52;;
12908;SDS011;6522;49.622;6.126;2023-08-30T08:29:44;14.48;;;13.38;;
12908;SDS011;6522;49.622;6.126;2023-08-30T08:32:31;14.70;;;13.40;;
12908;SDS011;6522;49.622;6.126;2023-08-30T08:35:18;12.82;;;11.82;;
12908;SDS011;6522;49.622;6.126;2023-08-30T08:38:05;15.40;;;14.00;;
12908;SDS011;6522;49.622;6.126;2023-08-30T08:41:01;13.80;;;12.60;;
12908;SDS011;6522;49.622;6.126;2023-08-30T08:43:42;14.40;;;13.57;;
12908;SDS011;6522;49.622;6.126;2023-08-30T08:46:29;13.02;;;12.13;;
12908;SDS011;6522;49.622;6.126;2023-08-30T08:49:15;13.48;;;12.48;;
12908;SDS011;6522;49.622;6.126;2023-08-30T08:52:02;13.35;;;12.40;;
12908;SDS011;6522;49.622;6.126;2023-08-30T08:54:49;14.47;;;13.60;;
12908;SDS011;6522;49.622;6.126;2023-08-30T08:57:37;13.25;;;12.13;;
12908;SDS011;6522;49.622;6.126;2023-08-30T09:00:24;12.73;;;11.93;;
12908;SDS011;6522;49.622;6.126;2023-08-30T09:03:11;14.60;;;13.60;;
12908;SDS011;6522;49.622;6.126;2023-08-30T09:05:58;13.93;;;13.02;;
12908;SDS011;6522;49.622;6.126;2023-08-30T09:08:44;15.20;;;14.10;;
12908;SDS011;6522;49.622;6.126;2023-08-30T09:11:31;17.57;;;16.50;;
12908;SDS011;6522;49.622;6.126;2023-08-30T09:14:18;15.50;;;14.60;;
12908;SDS011;6522;49.622;6.126;2023-08-30T09:17:04;16.17;;;15.25;;
12908;SDS011;6522;49.622;6.126;2023-08-30T09:19:51;19.90;;;18.60;;
12908;SDS011;6522;49.622;6.126;2023-08-30T09:22:38;19.20;;;18.00;;
12908;SDS011;6522;49.622;6.126;2023-08-30T09:25:27;16.70;;;15.60;;
12908;SDS011;6522;49.622;6.126;2023-08-30T09:28:14;17.12;;;15.82;;
12908;SDS011;6522;49.622;6.126;2023-08-30T09:31:01;18.03;;;17.03;;
12908;SDS011;6522;49.622;6.126;2023-08-30T09:33:48;16.05;;;15.05;;
12908;SDS011;6522;49.622;6.126;2023-08-30T09:36:38;16.10;;;15.10;;
12908;SDS011;6522;49.622;6.126;2023-08-30T09:39:25;17.25;;;16.25;;
12908;SDS011;6522;49.622;6.126;2023-08-30T09:42:12;20.37;;;19.27;;
12908;SDS011;6522;49.622;6.126;2023-08-30T09:44:59;17.00;;;15.90;;
12908;SDS011;6522;49.622;6.126;2023-08-30T09:47:46;18.40;;;17.40;;
12908;SDS011;6522;49.622;6.126;2023-08-30T09:50:36;16.40;;;15.10;;
12908;SDS011;6522;49.622;6.126;2023-08-30T09:53:20;17.52;;;16.33;;
12908;SDS011;6522;49.622;6.126;2023-08-30T09:56:06;17.60;;;16.30;;
12908;SDS011;6522;49.622;6.126;2023-08-30T09:58:53;19.17;;;17.97;;
12908;SDS011;6522;49.622;6.126;2023-08-30T10:01:40;15.73;;;14.65;;
12908;SDS011;6522;49.622;6.126;2023-08-30T10:04:26;14.55;;;13.55;;
12908;SDS011;6522;49.622;6.126;2023-08-30T10:07:14;15.77;;;14.57;;
12908;SDS011;6522;49.622;6.126;2023-08-30T10:10:00;14.57;;;13.18;;
12908;SDS011;6522;49.622;6.126;2023-08-30T10:12:47;17.80;;;16.60;;
12908;SDS011;6522;49.622;6.126;2023-08-30T10:15:34;14.07;;;12.88;;
12908;SDS011;6522;49.622;6.126;2023-08-30T10:18:20;16.20;;;15.10;;
12908;SDS011;6522;49.622;6.126;2023-08-30T10:21:07;14.15;;;12.95;;
12908;SDS011;6522;49.622;6.126;2023-08-30T10:23:54;14.40;;;13.40;;
12908;SDS011;6522;49.622;6.126;2023-08-30T10:26:41;17.30;;;16.10;;
12908;SDS011;6522;49.622;6.126;2023-08-30T10:29:27;14.30;;;13.30;;
12908;SDS011;6522;49.622;6.126;2023-08-30T10:32:18;14.82;;;13.55;;
12908;SDS011;6522;49.622;6.126;2023-08-30T10:35:01;17.03;;;16.03;;
12908;SDS011;6522;49.622;6.126;2023-08-30T10:37:54;14.50;;;13.30;;
12908;SDS011;6522;49.622;6.126;2023-08-30T10:40:44;13.82;;;12.73;;
12908;SDS011;6522;49.622;6.126;2023-08-30T10:43:33;16.00;;;15.10;;
12908;SDS011;6522;49.622;6.126;2023-08-30T10:46:28;16.60;;;15.50;;
12908;SDS011;6522;49.622;6.126;2023-08-30T10:49:08;14.60;;;13.30;;
12908;SDS011;6522;49.622;6.126;2023-08-30T10:51:57;16.73;;;15.60;;
12908;SDS011;6522;49.622;6.126;2023-08-30T10:54:44;15.50;;;14.40;;
12908;SDS011;6522;49.622;6.126;2023-08-30T10:57:31;15.93;;;14.82;;
12908;SDS011;6522;49.622;6.126;2023-08-30T11:03:10;16.87;;;15.68;;
12908;SDS011;6522;49.622;6.126;2023-08-30T11:05:52;16.45;;;15.55;;
12908;SDS011;6522;49.622;6.126;2023-08-30T11:08:38;19.83;;;18.63;;
12908;SDS011;6522;49.622;6.126;2023-08-30T11:11:25;16.70;;;15.70;;
12908;SDS011;6522;49.622;6.126;2023-08-30T11:14:12;16.48;;;15.27;;
12908;SDS011;6522;49.622;6.126;2023-08-30T11:16:58;18.03;;;17.03;;
12908;SDS011;6522;49.622;6.126;2023-08-30T11:19:45;16.27;;;15.27;;
12908;SDS011;6522;49.622;6.126;2023-08-30T11:22:32;16.70;;;15.50;;
12908;SDS011;6522;49.622;6.126;2023-08-30T11:25:19;18.33;;;17.20;;
12908;SDS011;6522;49.622;6.126;2023-08-30T11:28:06;16.50;;;15.30;;
12908;SDS011;6522;49.622;6.126;2023-08-30T11:30:53;16.48;;;15.38;;
12908;SDS011;6522;49.622;6.126;2023-08-30T11:33:39;19.10;;;18.03;;
12908;SDS011;6522;49.622;6.126;2023-08-30T11:36:26;15.90;;;14.70;;
12908;SDS011;6522;49.622;6.126;2023-08-30T11:39:12;15.40;;;14.30;;
12908;SDS011;6522;49.622;6.126;2023-08-30T11:41:59;17.00;;;16.00;;
12908;SDS011;6522;49.622;6.126;2023-08-30T11:44:46;15.63;;;14.63;;
12908;SDS011;6522;49.622;6.126;2023-08-30T11:47:32;15.20;;;14.20;;
12908;SDS011;6522;49.622;6.126;2023-08-30T11:50:19;14.45;;;13.45;;
12908;SDS011;6522;49.622;6.126;2023-08-30T11:53:06;17.83;;;16.33;;
12908;SDS011;6522;49.622;6.126;2023-08-30T11:55:53;14.45;;;13.55;;
12908;SDS011;6522;49.622;6.126;2023-08-30T11:58:39;15.10;;;14.00;;
12908;SDS011;6522;49.622;6.126;2023-08-30T12:01:26;17.10;;;16.10;;
12908;SDS011;6522;49.622;6.126;2023-08-30T12:04:14;13.98;;;12.80;;
12908;SDS011;6522;49.622;6.126;2023-08-30T12:07:00;12.90;;;11.70;;
12908;SDS011;6522;49.622;6.126;2023-08-30T12:09:47;15.17;;;14.17;;
12908;SDS011;6522;49.622;6.126;2023-08-30T12:12:34;12.70;;;11.50;;
12908;SDS011;6522;49.622;6.126;2023-08-30T12:15:24;14.60;;;13.30;;
12908;SDS011;6522;49.622;6.126;2023-08-30T12:18:10;12.00;;;11.00;;
12908;SDS011;6522;49.622;6.126;2023-08-30T12:20:58;11.93;;;11.02;;
12908;SDS011;6522;49.622;6.126;2023-08-30T12:23:44;13.03;;;11.83;;
12908;SDS011;6522;49.622;6.126;2023-08-30T12:26:33;9.90;;;9.05;;
12908;SDS011;6522;49.622;6.126;2023-08-30T12:29:20;9.85;;;8.85;;
12908;SDS011;6522;49.622;6.126;2023-08-30T12:32:07;10.63;;;9.90;;
12908;SDS011;6522;49.622;6.126;2023-08-30T12:34:54;8.57;;;7.78;;
12908;SDS011;6522;49.622;6.126;2023-08-30T12:37:41;10.87;;;9.77;;
12908;SDS011;6522;49.622;6.126;2023-08-30T12:40:28;10.23;;;9.33;;
12908;SDS011;6522;49.622;6.126;2023-08-30T12:43:15;6.90;;;6.40;;
12908;SDS011;6522;49.622;6.126;2023-08-30T12:46:01;11.40;;;9.77;;
12908;SDS011;6522;49.622;6.126;2023-08-30T12:48:47;8.20;;;7.60;;
12908;SDS011;6522;49.622;6.126;2023-08-30T12:51:34;8.67;;;7.97;;
12908;SDS011;6522;49.622;6.126;2023-08-30T12:54:21;8.70;;;7.90;;
12908;SDS011;6522;49.622;6.126;2023-08-30T12:57:08;8.18;;;7.55;;
12908;SDS011;6522;49.622;6.126;2023-08-30T12:59:54;7.22;;;6.62;;
12908;SDS011;6522;49.622;6.126;2023-08-30T13:02:41;5.50;;;5.00;;
12908;SDS011;6522;49.622;6.126;2023-08-30T13:05:28;8.10;;;6.47;;
12908;SDS011;6522;49.622;6.126;2023-08-30T13:08:15;7.20;;;6.50;;
12908;SDS011;6522;49.622;6.126;2023-08-30T13:11:02;7.40;;;6.80;;
12908;SDS011;6522;49.622;6.126;2023-08-30T13:13:48;8.68;;;7.85;;
12908;SDS011;6522;49.622;6.126;2023-08-30T13:16:35;8.50;;;7.90;;
12908;SDS011;6522;49.622;6.126;2023-08-30T13:19:22;9.00;;;8.30;;
12908;SDS011;6522;49.622;6.126;2023-08-30T13:22:08;9.60;;;8.75;;
12908;SDS011;6522;49.622;6.126;2023-08-30T13:24:55;9.38;;;8.65;;
12908;SDS011;6522;49.622;6.126;2023-08-30T13:27:41;10.05;;;9.30;;
12908;SDS011;6522;49.622;6.126;2023-08-30T13:30:29;9.00;;;8.20;;
12908;SDS011;6522;49.622;6.126;2023-08-30T13:33:15;11.60;;;10.80;;
12908;SDS011;6522;49.622;6.126;2023-08-30T13:36:02;11.02;;;10.13;;
12908;SDS011;6522;49.622;6.126;2023-08-30T13:38:49;12.73;;;10.23;;
12908;SDS011;6522;49.622;6.126;2023-08-30T13:41:36;10.45;;;9.63;;
12908;SDS011;6522;49.622;6.126;2023-08-30T13:44:23;8.63;;;8.02;;
12908;SDS011;6522;49.622;6.126;2023-08-30T13:47:09;9.98;;;9.18;;
12908;SDS011;6522;49.622;6.126;2023-08-30T13:49:56;8.52;;;7.93;;
12908;SDS011;6522;49.622;6.126;2023-08-30T13:52:43;9.27;;;8.57;;
12908;SDS011;6522;49.622;6.126;2023-08-30T13:55:30;9.65;;;8.85;;
12908;SDS011;6522;49.622;6.126;2023-08-30T13:58:16;10.82;;;10.13;;
12908;SDS011;6522;49.622;6.126;2023-08-30T14:01:03;8.90;;;8.30;;
12908;SDS011;6522;49.622;6.126;2023-08-30T14:03:50;7.97;;;7.37;;
12908;SDS011;6522;49.622;6.126;2023-08-30T14:06:36;9.23;;;8.60;;
12908;SDS011;6522;49.622;6.126;2023-08-30T14:09:23;8.32;;;7.72;;
12908;SDS011;6522;49.622;6.126;2023-08-30T14:12:09;8.57;;;7.97;;
12908;SDS011;6522;49.622;6.126;2023-08-30T14:14:56;8.60;;;7.90;;
12908;SDS011;6522;49.622;6.126;2023-08-30T14:17:43;7.90;;;7.30;;
12908;SDS011;6522;49.622;6.126;2023-08-30T14:20:30;8.77;;;7.97;;
12908;SDS011;6522;49.622;6.126;2023-08-30T14:23:17;8.43;;;7.72;;
12908;SDS011;6522;49.622;6.126;2023-08-30T14:26:04;6.80;;;6.20;;
12908;SDS011;6522;49.622;6.126;2023-08-30T14:28:50;9.38;;;8.40;;
12908;SDS011;6522;49.622;6.126;2023-08-30T14:31:37;7.47;;;6.57;;
12908;SDS011;6522;49.622;6.126;2023-08-30T14:34:24;8.13;;;7.53;;
12908;SDS011;6522;49.622;6.126;2023-08-30T14:37:11;7.00;;;6.45;;
12908;SDS011;6522;49.622;6.126;2023-08-30T14:39:58;10.00;;;7.43;;
12908;SDS011;6522;49.622;6.126;2023-08-30T14:42:45;7.18;;;6.62;;
12908;SDS011;6522;49.622;6.126;2023-08-30T14:45:31;7.43;;;6.93;;
12908;SDS011;6522;49.622;6.126;2023-08-30T14:48:18;7.85;;;7.20;;
12908;SDS011;6522;49.622;6.126;2023-08-30T14:51:05;8.00;;;7.30;;
12908;SDS011;6522;49.622;6.126;2023-08-30T14:53:52;8.80;;;8.18;;
12908;SDS011;6522;49.622;6.126;2023-08-30T14:56:38;8.20;;;7.50;;
12908;SDS011;6522;49.622;6.126;2023-08-30T14:59:26;8.57;;;7.85;;
12908;SDS011;6522;49.622;6.126;2023-08-30T15:02:12;7.93;;;7.32;;
12908;SDS011;6522;49.622;6.126;2023-08-30T15:04:59;8.00;;;7.40;;
12908;SDS011;6522;49.622;6.126;2023-08-30T15:07:46;9.65;;;8.95;;
12908;SDS011;6522;49.622;6.126;2023-08-30T15:10:33;12.25;;;11.45;;
12908;SDS011;6522;49.622;6.126;2023-08-30T15:13:20;12.80;;;10.90;;
12908;SDS011;6522;49.622;6.126;2023-08-30T15:16:07;10.90;;;10.20;;
12908;SDS011;6522;49.622;6.126;2023-08-30T15:18:53;10.15;;;9.15;;
12908;SDS011;6522;49.622;6.126;2023-08-30T15:21:41;10.18;;;9.38;;
12908;SDS011;6522;49.622;6.126;2023-08-30T15:24:27;11.65;;;10.95;;
12908;SDS011;6522;49.622;6.126;2023-08-30T15:27:14;10.93;;;10.23;;
12908;SDS011;6522;49.622;6.126;2023-08-30T15:30:02;10.05;;;9.45;;
12908;SDS011;6522;49.622;6.126;2023-08-30T15:32:48;9.70;;;9.10;;
12908;SDS011;6522;49.622;6.126;2023-08-30T15:35:41;9.90;;;9.20;;
12908;SDS011;6522;49.622;6.126;2023-08-30T15:38:27;8.55;;;7.75;;
12908;SDS011;6522;49.622;6.126;2023-08-30T15:41:14;9.50;;;8.52;;
12908;SDS011;6522;49.622;6.126;2023-08-30T15:44:00;9.77;;;7.82;;
12908;SDS011;6522;49.622;6.126;2023-08-30T15:46:47;8.48;;;7.87;;
12908;SDS011;6522;49.622;6.126;2023-08-30T15:49:34;7.65;;;7.12;;
12908;SDS011;6522;49.622;6.126;2023-08-30T15:52:20;7.72;;;7.03;;
12908;SDS011;6522;49.622;6.126;2023-08-30T15:55:07;8.70;;;8.00;;
12908;SDS011;6522;49.622;6.126;2023-08-30T15:57:54;8.35;;;7.62;;
12908;SDS011;6522;49.622;6.126;2023-08-30T16:00:41;6.07;;;5.43;;
12908;SDS011;6522;49.622;6.126;2023-08-30T16:03:27;8.02;;;7.30;;
12908;SDS011;6522;49.622;6.126;2023-08-30T16:06:14;7.87;;;7.37;;
12908;SDS011;6522;49.622;6.126;2023-08-30T16:09:01;8.13;;;7.43;;
12908;SDS011;6522;49.622;6.126;2023-08-30T16:11:48;7.65;;;7.05;;
12908;SDS011;6522;49.622;6.126;2023-08-30T16:14:35;8.35;;;7.65;;
12908;SDS011;6522;49.622;6.126;2023-08-30T16:17:21;8.48;;;7.78;;
12908;SDS011;6522;49.622;6.126;2023-08-30T16:20:08;8.65;;;7.95;;
12908;SDS011;6522;49.622;6.126;2023-08-30T16:22:55;8.25;;;7.60;;
12908;SDS011;6522;49.622;6.126;2023-08-30T16:25:42;7.18;;;6.47;;
12908;SDS011;6522;49.622;6.126;2023-08-30T16:28:29;6.87;;;6.28;;
12908;SDS011;6522;49.622;6.126;2023-08-30T16:31:15;5.18;;;4.68;;
12908;SDS011;6522;49.622;6.126;2023-08-30T16:34:02;9.32;;;8.63;;
12908;SDS011;6522;49.622;6.126;2023-08-30T16:36:49;10.30;;;9.60;;
12908;SDS011;6522;49.622;6.126;2023-08-30T16:39:36;5.40;;;5.20;;